createdAt,value
2019-05-23T00:04:29.365Z,9.99
2019-05-23T00:09:34.153Z,9.99
2019-05-23T00:14:44.364Z,10.08
2019-05-23T00:19:50.328Z,9.87
2019-05-23T00:24:55.843Z,9.62
2019-05-23T00:30:02.115Z,9.53
2019-05-23T00:40:23.167Z,9.65
2019-05-23T00:45:29.370Z,9.53
2019-05-23T00:50:34.832Z,9.47
2019-05-23T00:55:39.690Z,9.29
2019-05-23T01:00:44.515Z,9.08
2019-05-23T01:05:50.169Z,9.20
2019-05-23T01:10:56.517Z,9.07
2019-05-23T01:16:01.193Z,8.89
2019-05-23T01:21:13.956Z,8.86
2019-05-23T01:26:20.252Z,8.98
2019-05-23T01:31:27.784Z,9.08
2019-05-23T01:36:33.400Z,9.02
2019-05-23T01:41:39.691Z,9.18
2019-05-23T01:46:44.982Z,9.23
2019-05-23T01:51:50.725Z,9.18
2019-05-23T01:56:56.188Z,9.31
2019-05-23T02:02:00.902Z,9.57
2019-05-23T02:07:06.183Z,9.63
2019-05-23T02:12:12.092Z,9.68
2019-05-23T02:17:17.376Z,9.70
2019-05-23T02:22:22.775Z,9.69
2019-05-23T02:27:28.051Z,9.55
2019-05-23T02:32:34.173Z,9.59
2019-05-23T02:37:58.192Z,9.71
2019-05-23T02:43:05.585Z,9.77
2019-05-23T02:48:14.278Z,9.90
2019-05-23T02:53:21.119Z,9.82
2019-05-23T02:58:33.734Z,9.72
2019-05-23T03:03:40.077Z,9.66
2019-05-23T03:08:46.477Z,9.63
2019-05-23T03:13:53.320Z,9.68
2019-05-23T03:19:01.432Z,9.52
2019-05-23T03:24:08.175Z,9.52
2019-05-23T03:29:12.943Z,9.34
2019-05-23T03:34:21.246Z,9.10
2019-05-23T03:39:26.305Z,9.13
2019-05-23T03:44:32.218Z,9.25
2019-05-23T03:49:37.107Z,9.25
2019-05-23T03:54:43.834Z,9.37
2019-05-23T03:59:48.947Z,9.60
2019-05-23T04:04:54.045Z,9.68
2019-05-23T04:09:59.210Z,9.88
2019-05-23T04:15:04.825Z,10.21
2019-05-23T04:26:00.958Z,10.74
2019-05-23T04:31:06.175Z,10.87
2019-05-23T04:36:10.952Z,11.04
2019-05-23T04:41:16.146Z,11.19
2019-05-23T04:46:21.367Z,11.24
2019-05-23T04:51:26.565Z,11.15
2019-05-23T04:56:31.490Z,11.20
2019-05-23T05:01:37.491Z,11.19
2019-05-23T05:06:42.376Z,11.07
2019-05-23T05:11:47.460Z,11.07
2019-05-23T05:16:52.324Z,11.20
2019-05-23T05:21:57.220Z,11.45
2019-05-23T05:27:02.237Z,11.80
2019-05-23T05:32:07.864Z,11.96
2019-05-23T05:37:12.775Z,12.09
2019-05-23T05:42:18.223Z,12.22
2019-05-23T05:47:23.016Z,12.30
2019-05-23T05:52:27.983Z,12.34
2019-05-23T05:57:32.766Z,12.38
2019-05-23T06:02:37.765Z,12.28
2019-05-23T06:07:43.822Z,12.33
2019-05-23T06:12:48.541Z,12.53
2019-05-23T06:17:53.801Z,12.87
2019-05-23T06:22:58.745Z,13.27
